sensor_id;sensor_type;location;lat;lon;timestamp;P1;durP1;ratioP1;P2;durP2;ratioP2
52868;SDS011;39100;53.480;6.158;2024-02-04T00:00:23;3.50;;;0.60;;
52868;SDS011;39100;53.480;6.158;2024-02-04T00:02:49;6.68;;;1.27;;
52868;SDS011;39100;53.480;6.158;2024-02-04T00:05:14;3.38;;;0.57;;
52868;SDS011;39100;53.480;6.158;2024-02-04T00:07:40;6.15;;;0.98;;
52868;SDS011;39100;53.480;6.158;2024-02-04T00:10:06;8.40;;;2.22;;
52868;SDS011;39100;53.480;6.158;2024-02-04T00:12:31;6.07;;;1.42;;
52868;SDS011;39100;53.480;6.158;2024-02-04T00:14:57;6.25;;;1.58;;
52868;SDS011;39100;53.480;6.158;2024-02-04T00:17:23;7.97;;;2.10;;
52868;SDS011;39100;53.480;6.158;2024-02-04T00:19:48;9.77;;;2.53;;
52868;SDS011;39100;53.480;6.158;2024-02-04T00:22:14;8.23;;;2.10;;
52868;SDS011;39100;53.480;6.158;2024-02-04T00:24:43;5.18;;;1.33;;
52868;SDS011;39100;53.480;6.158;2024-02-04T00:27:09;6.28;;;0.70;;
52868;SDS011;39100;53.480;6.158;2024-02-04T00:29:34;6.13;;;1.23;;
52868;SDS011;39100;53.480;6.158;2024-02-04T00:32:00;5.75;;;0.95;;
52868;SDS011;39100;53.480;6.158;2024-02-04T00:34:25;10.18;;;1.38;;
52868;SDS011;39100;53.480;6.158;2024-02-04T00:36:51;10.63;;;1.60;;
52868;SDS011;39100;53.480;6.158;2024-02-04T00:39:16;9.88;;;1.42;;
52868;SDS011;39100;53.480;6.158;2024-02-04T00:41:42;9.10;;;1.23;;
52868;SDS011;39100;53.480;6.158;2024-02-04T00:44:08;13.48;;;1.58;;
52868;SDS011;39100;53.480;6.158;2024-02-04T00:46:33;10.10;;;1.45;;
52868;SDS011;39100;53.480;6.158;2024-02-04T00:48:59;7.30;;;1.38;;
52868;SDS011;39100;53.480;6.158;2024-02-04T00:51:24;8.90;;;1.42;;
52868;SDS011;39100;53.480;6.158;2024-02-04T00:53:50;13.32;;;1.95;;
52868;SDS011;39100;53.480;6.158;2024-02-04T00:56:15;15.77;;;2.55;;
52868;SDS011;39100;53.480;6.158;2024-02-04T00:58:41;11.43;;;2.30;;
52868;SDS011;39100;53.480;6.158;2024-02-04T01:01:07;16.05;;;2.50;;
52868;SDS011;39100;53.480;6.158;2024-02-04T01:03:32;13.30;;;2.03;;
52868;SDS011;39100;53.480;6.158;2024-02-04T01:05:58;12.85;;;2.17;;
52868;SDS011;39100;53.480;6.158;2024-02-04T01:08:24;11.88;;;1.60;;
52868;SDS011;39100;53.480;6.158;2024-02-04T01:10:49;10.75;;;1.40;;
52868;SDS011;39100;53.480;6.158;2024-02-04T01:13:16;11.18;;;1.58;;
52868;SDS011;39100;53.480;6.158;2024-02-04T01:15:42;10.98;;;1.65;;
52868;SDS011;39100;53.480;6.158;2024-02-04T01:18:08;10.70;;;1.20;;
52868;SDS011;39100;53.480;6.158;2024-02-04T01:20:34;9.10;;;1.40;;
52868;SDS011;39100;53.480;6.158;2024-02-04T01:22:59;4.55;;;0.95;;
52868;SDS011;39100;53.480;6.158;2024-02-04T01:25:25;10.35;;;1.48;;
52868;SDS011;39100;53.480;6.158;2024-02-04T01:27:51;9.60;;;1.38;;
52868;SDS011;39100;53.480;6.158;2024-02-04T01:30:16;9.63;;;1.10;;
52868;SDS011;39100;53.480;6.158;2024-02-04T01:32:42;8.20;;;1.02;;
52868;SDS011;39100;53.480;6.158;2024-02-04T01:35:07;11.32;;;2.45;;
52868;SDS011;39100;53.480;6.158;2024-02-04T01:37:33;7.60;;;0.90;;
52868;SDS011;39100;53.480;6.158;2024-02-04T01:39:59;13.07;;;1.83;;
52868;SDS011;39100;53.480;6.158;2024-02-04T01:42:24;8.77;;;1.20;;
52868;SDS011;39100;53.480;6.158;2024-02-04T01:44:50;5.05;;;0.80;;
52868;SDS011;39100;53.480;6.158;2024-02-04T01:47:16;9.32;;;1.05;;
52868;SDS011;39100;53.480;6.158;2024-02-04T01:49:42;7.10;;;1.30;;
52868;SDS011;39100;53.480;6.158;2024-02-04T01:52:09;7.75;;;1.42;;
52868;SDS011;39100;53.480;6.158;2024-02-04T01:54:37;8.85;;;1.58;;
52868;SDS011;39100;53.480;6.158;2024-02-04T01:57:04;9.48;;;1.10;;
52868;SDS011;39100;53.480;6.158;2024-02-04T01:59:32;5.88;;;1.42;;
52868;SDS011;39100;53.480;6.158;2024-02-04T02:01:59;6.70;;;1.00;;
52868;SDS011;39100;53.480;6.158;2024-02-04T02:04:25;9.60;;;1.90;;
52868;SDS011;39100;53.480;6.158;2024-02-04T02:06:52;9.68;;;1.50;;
52868;SDS011;39100;53.480;6.158;2024-02-04T02:09:20;12.10;;;2.47;;
52868;SDS011;39100;53.480;6.158;2024-02-04T02:11:47;8.70;;;1.58;;
52868;SDS011;39100;53.480;6.158;2024-02-04T02:14:22;5.30;;;1.33;;
52868;SDS011;39100;53.480;6.158;2024-02-04T02:16:56;13.35;;;2.03;;
52868;SDS011;39100;53.480;6.158;2024-02-04T02:19:43;10.88;;;1.50;;
52868;SDS011;39100;53.480;6.158;2024-02-04T02:24:50;9.55;;;1.20;;
52868;SDS011;39100;53.480;6.158;2024-02-04T02:27:16;7.03;;;1.17;;
52868;SDS011;39100;53.480;6.158;2024-02-04T02:29:42;7.45;;;1.40;;
52868;SDS011;39100;53.480;6.158;2024-02-04T02:32:07;7.38;;;1.20;;
52868;SDS011;39100;53.480;6.158;2024-02-04T02:34:33;8.30;;;1.63;;
52868;SDS011;39100;53.480;6.158;2024-02-04T02:36:59;11.90;;;1.42;;
52868;SDS011;39100;53.480;6.158;2024-02-04T02:39:31;7.70;;;0.95;;
52868;SDS011;39100;53.480;6.158;2024-02-04T02:42:01;6.97;;;0.75;;
52868;SDS011;39100;53.480;6.158;2024-02-04T02:44:29;6.43;;;0.75;;
52868;SDS011;39100;53.480;6.158;2024-02-04T02:46:56;19.10;;;1.65;;
52868;SDS011;39100;53.480;6.158;2024-02-04T02:49:24;6.13;;;1.30;;
52868;SDS011;39100;53.480;6.158;2024-02-04T02:51:49;5.47;;;0.90;;
52868;SDS011;39100;53.480;6.158;2024-02-04T02:54:15;6.22;;;1.48;;
52868;SDS011;39100;53.480;6.158;2024-02-04T02:56:40;7.60;;;1.63;;
52868;SDS011;39100;53.480;6.158;2024-02-04T02:59:06;14.40;;;1.48;;
52868;SDS011;39100;53.480;6.158;2024-02-04T03:01:33;6.78;;;1.10;;
52868;SDS011;39100;53.480;6.158;2024-02-04T03:03:58;9.00;;;1.77;;
52868;SDS011;39100;53.480;6.158;2024-02-04T03:06:24;9.10;;;1.23;;
52868;SDS011;39100;53.480;6.158;2024-02-04T03:08:49;11.52;;;1.27;;
52868;SDS011;39100;53.480;6.158;2024-02-04T03:11:15;5.28;;;0.70;;
52868;SDS011;39100;53.480;6.158;2024-02-04T03:13:41;7.03;;;1.52;;
52868;SDS011;39100;53.480;6.158;2024-02-04T03:16:10;10.95;;;1.45;;
52868;SDS011;39100;53.480;6.158;2024-02-04T03:18:38;8.98;;;1.70;;
52868;SDS011;39100;53.480;6.158;2024-02-04T03:21:13;7.75;;;1.10;;
52868;SDS011;39100;53.480;6.158;2024-02-04T03:23:43;5.82;;;1.30;;
52868;SDS011;39100;53.480;6.158;2024-02-04T03:26:16;4.18;;;1.67;;
52868;SDS011;39100;53.480;6.158;2024-02-04T03:28:44;8.15;;;1.40;;
52868;SDS011;39100;53.480;6.158;2024-02-04T03:31:09;12.55;;;1.58;;
52868;SDS011;39100;53.480;6.158;2024-02-04T03:33:35;7.65;;;1.33;;
52868;SDS011;39100;53.480;6.158;2024-02-04T03:36:01;7.25;;;1.17;;
52868;SDS011;39100;53.480;6.158;2024-02-04T03:38:26;9.32;;;0.80;;
52868;SDS011;39100;53.480;6.158;2024-02-04T03:40:52;9.68;;;1.15;;
52868;SDS011;39100;53.480;6.158;2024-02-04T03:43:17;10.18;;;2.53;;
52868;SDS011;39100;53.480;6.158;2024-02-04T03:45:43;10.32;;;1.40;;
52868;SDS011;39100;53.480;6.158;2024-02-04T03:48:08;11.27;;;3.08;;
52868;SDS011;39100;53.480;6.158;2024-02-04T03:50:35;11.18;;;1.60;;
52868;SDS011;39100;53.480;6.158;2024-02-04T03:53:01;11.45;;;1.60;;
52868;SDS011;39100;53.480;6.158;2024-02-04T03:55:27;11.38;;;1.75;;
52868;SDS011;39100;53.480;6.158;2024-02-04T03:57:54;4.45;;;1.80;;
52868;SDS011;39100;53.480;6.158;2024-02-04T04:00:19;10.38;;;1.98;;
52868;SDS011;39100;53.480;6.158;2024-02-04T04:02:45;10.48;;;1.63;;
52868;SDS011;39100;53.480;6.158;2024-02-04T04:05:11;10.85;;;1.70;;
52868;SDS011;39100;53.480;6.158;2024-02-04T04:07:38;7.47;;;1.02;;
52868;SDS011;39100;53.480;6.158;2024-02-04T04:10:04;9.77;;;1.23;;
52868;SDS011;39100;53.480;6.158;2024-02-04T04:12:31;8.40;;;1.40;;
52868;SDS011;39100;53.480;6.158;2024-02-04T04:14:56;5.47;;;1.88;;
52868;SDS011;39100;53.480;6.158;2024-02-04T04:17:22;6.10;;;1.40;;
52868;SDS011;39100;53.480;6.158;2024-02-04T04:19:47;7.63;;;1.48;;
52868;SDS011;39100;53.480;6.158;2024-02-04T04:22:13;8.70;;;1.17;;
52868;SDS011;39100;53.480;6.158;2024-02-04T04:24:38;10.77;;;1.98;;
52868;SDS011;39100;53.480;6.158;2024-02-04T04:27:04;11.45;;;2.58;;
52868;SDS011;39100;53.480;6.158;2024-02-04T04:29:30;13.63;;;1.80;;
52868;SDS011;39100;53.480;6.158;2024-02-04T04:31:56;14.00;;;1.55;;
52868;SDS011;39100;53.480;6.158;2024-02-04T04:34:21;13.82;;;2.30;;
52868;SDS011;39100;53.480;6.158;2024-02-04T04:36:47;8.02;;;1.88;;
52868;SDS011;39100;53.480;6.158;2024-02-04T04:39:12;6.05;;;1.50;;
52868;SDS011;39100;53.480;6.158;2024-02-04T04:41:39;7.55;;;1.27;;
52868;SDS011;39100;53.480;6.158;2024-02-04T04:44:05;8.07;;;1.50;;
52868;SDS011;39100;53.480;6.158;2024-02-04T04:46:31;11.50;;;1.45;;
52868;SDS011;39100;53.480;6.158;2024-02-04T04:48:57;7.32;;;1.73;;
52868;SDS011;39100;53.480;6.158;2024-02-04T04:51:23;9.07;;;2.33;;
52868;SDS011;39100;53.480;6.158;2024-02-04T04:53:49;10.77;;;1.50;;
52868;SDS011;39100;53.480;6.158;2024-02-04T04:56:14;12.23;;;1.92;;
52868;SDS011;39100;53.480;6.158;2024-02-04T04:58:40;14.13;;;1.75;;
52868;SDS011;39100;53.480;6.158;2024-02-04T05:01:05;9.43;;;1.52;;
52868;SDS011;39100;53.480;6.158;2024-02-04T05:03:31;6.70;;;1.88;;
52868;SDS011;39100;53.480;6.158;2024-02-04T05:05:57;6.07;;;0.75;;
52868;SDS011;39100;53.480;6.158;2024-02-04T05:08:23;10.85;;;1.05;;
52868;SDS011;39100;53.480;6.158;2024-02-04T05:10:48;6.82;;;1.08;;
52868;SDS011;39100;53.480;6.158;2024-02-04T05:13:14;10.27;;;1.10;;
52868;SDS011;39100;53.480;6.158;2024-02-04T05:15:39;7.13;;;1.98;;
52868;SDS011;39100;53.480;6.158;2024-02-04T05:18:05;7.47;;;1.05;;
52868;SDS011;39100;53.480;6.158;2024-02-04T05:20:31;11.60;;;2.05;;
52868;SDS011;39100;53.480;6.158;2024-02-04T05:22:56;6.10;;;1.52;;
52868;SDS011;39100;53.480;6.158;2024-02-04T05:25:22;17.48;;;3.22;;
52868;SDS011;39100;53.480;6.158;2024-02-04T05:27:48;13.20;;;1.27;;
52868;SDS011;39100;53.480;6.158;2024-02-04T05:30:14;6.90;;;1.08;;
52868;SDS011;39100;53.480;6.158;2024-02-04T05:32:40;7.97;;;1.38;;
52868;SDS011;39100;53.480;6.158;2024-02-04T05:35:07;6.00;;;0.90;;
52868;SDS011;39100;53.480;6.158;2024-02-04T05:37:33;6.65;;;1.10;;
52868;SDS011;39100;53.480;6.158;2024-02-04T05:39:59;6.10;;;0.88;;
52868;SDS011;39100;53.480;6.158;2024-02-04T05:42:24;5.45;;;1.65;;
52868;SDS011;39100;53.480;6.158;2024-02-04T05:44:50;8.65;;;1.48;;
52868;SDS011;39100;53.480;6.158;2024-02-04T05:47:16;8.07;;;1.13;;
52868;SDS011;39100;53.480;6.158;2024-02-04T05:49:41;5.45;;;2.20;;
52868;SDS011;39100;53.480;6.158;2024-02-04T05:52:07;8.40;;;1.40;;
52868;SDS011;39100;53.480;6.158;2024-02-04T05:54:37;6.03;;;1.55;;
52868;SDS011;39100;53.480;6.158;2024-02-04T05:57:04;8.98;;;1.60;;
52868;SDS011;39100;53.480;6.158;2024-02-04T05:59:29;5.60;;;0.95;;
52868;SDS011;39100;53.480;6.158;2024-02-04T06:01:55;4.97;;;0.77;;
52868;SDS011;39100;53.480;6.158;2024-02-04T06:04:21;6.88;;;2.05;;
52868;SDS011;39100;53.480;6.158;2024-02-04T06:06:46;6.47;;;1.80;;
52868;SDS011;39100;53.480;6.158;2024-02-04T06:09:12;6.97;;;1.42;;
52868;SDS011;39100;53.480;6.158;2024-02-04T06:11:38;6.53;;;1.60;;
52868;SDS011;39100;53.480;6.158;2024-02-04T06:14:04;8.68;;;1.35;;
52868;SDS011;39100;53.480;6.158;2024-02-04T06:16:30;12.27;;;1.30;;
52868;SDS011;39100;53.480;6.158;2024-02-04T06:18:55;6.28;;;1.67;;
52868;SDS011;39100;53.480;6.158;2024-02-04T06:21:23;10.40;;;1.63;;
52868;SDS011;39100;53.480;6.158;2024-02-04T06:23:48;11.20;;;1.98;;
52868;SDS011;39100;53.480;6.158;2024-02-04T06:26:14;13.48;;;1.55;;
52868;SDS011;39100;53.480;6.158;2024-02-04T06:28:40;15.00;;;3.08;;
52868;SDS011;39100;53.480;6.158;2024-02-04T06:31:08;9.50;;;1.67;;
52868;SDS011;39100;53.480;6.158;2024-02-04T06:33:34;5.30;;;1.10;;
52868;SDS011;39100;53.480;6.158;2024-02-04T06:35:59;9.85;;;0.70;;
52868;SDS011;39100;53.480;6.158;2024-02-04T06:38:25;13.18;;;1.80;;
52868;SDS011;39100;53.480;6.158;2024-02-04T06:40:50;13.88;;;2.17;;
52868;SDS011;39100;53.480;6.158;2024-02-04T06:43:16;21.75;;;3.03;;
52868;SDS011;39100;53.480;6.158;2024-02-04T06:45:42;8.10;;;1.48;;
52868;SDS011;39100;53.480;6.158;2024-02-04T06:48:07;9.50;;;1.73;;
52868;SDS011;39100;53.480;6.158;2024-02-04T06:50:34;13.45;;;2.28;;
52868;SDS011;39100;53.480;6.158;2024-02-04T06:53:00;10.77;;;1.40;;
52868;SDS011;39100;53.480;6.158;2024-02-04T06:55:26;10.18;;;2.08;;
52868;SDS011;39100;53.480;6.158;2024-02-04T06:57:51;8.98;;;2.42;;
52868;SDS011;39100;53.480;6.158;2024-02-04T07:00:17;10.15;;;1.95;;
52868;SDS011;39100;53.480;6.158;2024-02-04T07:02:43;12.57;;;1.48;;
52868;SDS011;39100;53.480;6.158;2024-02-04T07:05:08;10.27;;;2.28;;
52868;SDS011;39100;53.480;6.158;2024-02-04T07:07:35;12.07;;;1.83;;
52868;SDS011;39100;53.480;6.158;2024-02-04T07:10:01;12.50;;;1.63;;
52868;SDS011;39100;53.480;6.158;2024-02-04T07:12:27;11.30;;;1.60;;
52868;SDS011;39100;53.480;6.158;2024-02-04T07:14:52;5.03;;;1.10;;
52868;SDS011;39100;53.480;6.158;2024-02-04T07:17:18;11.05;;;1.58;;
52868;SDS011;39100;53.480;6.158;2024-02-04T07:19:43;9.27;;;1.27;;
52868;SDS011;39100;53.480;6.158;2024-02-04T07:22:09;9.75;;;1.25;;
52868;SDS011;39100;53.480;6.158;2024-02-04T07:24:35;11.02;;;1.23;;
52868;SDS011;39100;53.480;6.158;2024-02-04T07:27:00;10.38;;;1.83;;
52868;SDS011;39100;53.480;6.158;2024-02-04T07:29:26;12.90;;;2.20;;
52868;SDS011;39100;53.480;6.158;2024-02-04T07:31:51;11.65;;;1.92;;
52868;SDS011;39100;53.480;6.158;2024-02-04T07:34:17;8.98;;;1.00;;
52868;SDS011;39100;53.480;6.158;2024-02-04T07:36:42;11.20;;;1.27;;
52868;SDS011;39100;53.480;6.158;2024-02-04T07:39:10;5.45;;;0.73;;
52868;SDS011;39100;53.480;6.158;2024-02-04T07:41:35;10.55;;;1.45;;
52868;SDS011;39100;53.480;6.158;2024-02-04T07:44:01;7.78;;;1.73;;
52868;SDS011;39100;53.480;6.158;2024-02-04T07:46:27;15.70;;;2.20;;
52868;SDS011;39100;53.480;6.158;2024-02-04T07:48:52;13.45;;;1.60;;
52868;SDS011;39100;53.480;6.158;2024-02-04T07:51:18;10.68;;;1.77;;
52868;SDS011;39100;53.480;6.158;2024-02-04T07:53:45;7.82;;;1.60;;
52868;SDS011;39100;53.480;6.158;2024-02-04T07:56:10;9.00;;;1.13;;
52868;SDS011;39100;53.480;6.158;2024-02-04T07:58:36;16.73;;;2.08;;
52868;SDS011;39100;53.480;6.158;2024-02-04T08:01:02;12.38;;;2.05;;
52868;SDS011;39100;53.480;6.158;2024-02-04T08:03:27;9.32;;;1.55;;
52868;SDS011;39100;53.480;6.158;2024-02-04T08:05:53;7.80;;;1.20;;
52868;SDS011;39100;53.480;6.158;2024-02-04T08:08:18;8.45;;;2.03;;
52868;SDS011;39100;53.480;6.158;2024-02-04T08:10:44;9.57;;;1.90;;
52868;SDS011;39100;53.480;6.158;2024-02-04T08:13:09;4.10;;;1.42;;
52868;SDS011;39100;53.480;6.158;2024-02-04T08:15:35;4.57;;;0.95;;
52868;SDS011;39100;53.480;6.158;2024-02-04T08:18:01;5.05;;;1.83;;
52868;SDS011;39100;53.480;6.158;2024-02-04T08:20:26;5.78;;;1.50;;
52868;SDS011;39100;53.480;6.158;2024-02-04T08:22:52;5.63;;;0.98;;
52868;SDS011;39100;53.480;6.158;2024-02-04T08:25:18;9.27;;;1.80;;
52868;SDS011;39100;53.480;6.158;2024-02-04T08:27:43;14.00;;;1.35;;
52868;SDS011;39100;53.480;6.158;2024-02-04T08:30:09;7.63;;;1.42;;
52868;SDS011;39100;53.480;6.158;2024-02-04T08:32:36;9.32;;;1.23;;
52868;SDS011;39100;53.480;6.158;2024-02-04T08:35:03;8.27;;;1.60;;
52868;SDS011;39100;53.480;6.158;2024-02-04T08:37:29;4.75;;;1.35;;
52868;SDS011;39100;53.480;6.158;2024-02-04T08:39:54;6.50;;;1.15;;
52868;SDS011;39100;53.480;6.158;2024-02-04T08:42:20;8.02;;;0.98;;
52868;SDS011;39100;53.480;6.158;2024-02-04T08:44:45;7.97;;;1.80;;
52868;SDS011;39100;53.480;6.158;2024-02-04T08:47:12;7.07;;;1.50;;
52868;SDS011;39100;53.480;6.158;2024-02-04T08:49:39;12.32;;;2.67;;
52868;SDS011;39100;53.480;6.158;2024-02-04T08:52:05;12.00;;;2.25;;
52868;SDS011;39100;53.480;6.158;2024-02-04T08:54:30;5.95;;;1.40;;
52868;SDS011;39100;53.480;6.158;2024-02-04T08:56:56;6.22;;;1.33;;
52868;SDS011;39100;53.480;6.158;2024-02-04T08:59:21;10.38;;;1.58;;
52868;SDS011;39100;53.480;6.158;2024-02-04T09:01:49;6.25;;;1.10;;
52868;SDS011;39100;53.480;6.158;2024-02-04T09:04:15;7.28;;;2.08;;
52868;SDS011;39100;53.480;6.158;2024-02-04T09:06:40;7.43;;;1.40;;
52868;SDS011;39100;53.480;6.158;2024-02-04T09:09:06;11.30;;;1.67;;
52868;SDS011;39100;53.480;6.158;2024-02-04T09:11:33;10.65;;;1.52;;
52868;SDS011;39100;53.480;6.158;2024-02-04T09:13:59;11.23;;;1.40;;
52868;SDS011;39100;53.480;6.158;2024-02-04T09:16:24;8.27;;;1.17;;
52868;SDS011;39100;53.480;6.158;2024-02-04T09:18:50;6.75;;;2.17;;
52868;SDS011;39100;53.480;6.158;2024-02-04T09:21:15;11.75;;;2.22;;
52868;SDS011;39100;53.480;6.158;2024-02-04T09:23:41;8.75;;;2.35;;
52868;SDS011;39100;53.480;6.158;2024-02-04T09:26:07;10.20;;;2.22;;
52868;SDS011;39100;53.480;6.158;2024-02-04T09:28:32;6.07;;;1.75;;
52868;SDS011;39100;53.480;6.158;2024-02-04T09:30:58;9.93;;;1.48;;
52868;SDS011;39100;53.480;6.158;2024-02-04T09:33:24;11.20;;;1.77;;
52868;SDS011;39100;53.480;6.158;2024-02-04T09:35:49;9.73;;;1.75;;
52868;SDS011;39100;53.480;6.158;2024-02-04T09:38:15;9.77;;;1.30;;
52868;SDS011;39100;53.480;6.158;2024-02-04T09:40:41;11.57;;;1.60;;
52868;SDS011;39100;53.480;6.158;2024-02-04T09:43:06;7.13;;;1.30;;
52868;SDS011;39100;53.480;6.158;2024-02-04T09:45:33;7.68;;;2.33;;
52868;SDS011;39100;53.480;6.158;2024-02-04T09:47:59;13.07;;;1.30;;
52868;SDS011;39100;53.480;6.158;2024-02-04T09:50:27;12.82;;;1.48;;
52868;SDS011;39100;53.480;6.158;2024-02-04T09:52:54;14.02;;;2.00;;
52868;SDS011;39100;53.480;6.158;2024-02-04T09:55:23;9.75;;;2.13;;
52868;SDS011;39100;53.480;6.158;2024-02-04T09:57:50;8.50;;;2.20;;
52868;SDS011;39100;53.480;6.158;2024-02-04T10:00:16;5.28;;;1.95;;
52868;SDS011;39100;53.480;6.158;2024-02-04T10:02:44;9.82;;;1.27;;
52868;SDS011;39100;53.480;6.158;2024-02-04T10:05:11;8.77;;;1.63;;
52868;SDS011;39100;53.480;6.158;2024-02-04T10:07:37;8.15;;;1.38;;
52868;SDS011;39100;53.480;6.158;2024-02-04T10:10:03;12.45;;;1.35;;
52868;SDS011;39100;53.480;6.158;2024-02-04T10:12:30;11.48;;;1.17;;
52868;SDS011;39100;53.480;6.158;2024-02-04T10:14:55;8.60;;;1.33;;
52868;SDS011;39100;53.480;6.158;2024-02-04T10:17:21;8.10;;;1.92;;
52868;SDS011;39100;53.480;6.158;2024-02-04T10:19:47;9.07;;;1.50;;
52868;SDS011;39100;53.480;6.158;2024-02-04T10:22:14;9.63;;;1.40;;
52868;SDS011;39100;53.480;6.158;2024-02-04T10:24:41;9.50;;;1.42;;
52868;SDS011;39100;53.480;6.158;2024-02-04T10:27:07;9.23;;;1.40;;
52868;SDS011;39100;53.480;6.158;2024-02-04T10:29:35;9.60;;;1.77;;
52868;SDS011;39100;53.480;6.158;2024-02-04T10:32:01;13.50;;;2.63;;
52868;SDS011;39100;53.480;6.158;2024-02-04T10:34:27;12.65;;;2.28;;
52868;SDS011;39100;53.480;6.158;2024-02-04T10:36:55;16.23;;;2.55;;
52868;SDS011;39100;53.480;6.158;2024-02-04T10:39:22;23.08;;;2.95;;
52868;SDS011;39100;53.480;6.158;2024-02-04T10:41:51;20.65;;;3.67;;
52868;SDS011;39100;53.480;6.158;2024-02-04T10:44:20;15.98;;;2.58;;
52868;SDS011;39100;53.480;6.158;2024-02-04T10:46:47;13.73;;;3.17;;
52868;SDS011;39100;53.480;6.158;2024-02-04T10:49:14;7.53;;;1.77;;
52868;SDS011;39100;53.480;6.158;2024-02-04T10:51:43;12.55;;;2.25;;
52868;SDS011;39100;53.480;6.158;2024-02-04T10:54:11;12.55;;;3.33;;
52868;SDS011;39100;53.480;6.158;2024-02-04T10:56:44;14.23;;;2.85;;
52868;SDS011;39100;53.480;6.158;2024-02-04T10:59:12;14.93;;;3.25;;
52868;SDS011;39100;53.480;6.158;2024-02-04T11:01:45;18.52;;;4.20;;
52868;SDS011;39100;53.480;6.158;2024-02-04T11:04:13;12.80;;;2.58;;
52868;SDS011;39100;53.480;6.158;2024-02-04T11:06:42;16.67;;;3.13;;
52868;SDS011;39100;53.480;6.158;2024-02-04T11:09:09;9.65;;;2.42;;
52868;SDS011;39100;53.480;6.158;2024-02-04T11:11:37;13.15;;;2.40;;
52868;SDS011;39100;53.480;6.158;2024-02-04T11:14:04;16.35;;;2.80;;
52868;SDS011;39100;53.480;6.158;2024-02-04T11:22:00;11.38;;;3.25;;
52868;SDS011;39100;53.480;6.158;2024-02-04T11:27:13;17.27;;;2.20;;
52868;SDS011;39100;53.480;6.158;2024-02-04T11:29:40;12.00;;;2.38;;
52868;SDS011;39100;53.480;6.158;2024-02-04T11:32:06;10.75;;;3.05;;
52868;SDS011;39100;53.480;6.158;2024-02-04T11:34:32;13.48;;;2.53;;
52868;SDS011;39100;53.480;6.158;2024-02-04T11:36:59;12.73;;;2.05;;
52868;SDS011;39100;53.480;6.158;2024-02-04T11:39:25;14.85;;;1.77;;
52868;SDS011;39100;53.480;6.158;2024-02-04T11:41:51;11.48;;;2.58;;
52868;SDS011;39100;53.480;6.158;2024-02-04T11:44:23;13.35;;;1.95;;
52868;SDS011;39100;53.480;6.158;2024-02-04T11:46:50;11.23;;;2.22;;
52868;SDS011;39100;53.480;6.158;2024-02-04T11:49:17;8.88;;;2.13;;
52868;SDS011;39100;53.480;6.158;2024-02-04T11:51:45;15.38;;;3.15;;
52868;SDS011;39100;53.480;6.158;2024-02-04T11:54:15;22.42;;;3.05;;
52868;SDS011;39100;53.480;6.158;2024-02-04T11:56:43;17.48;;;2.90;;
52868;SDS011;39100;53.480;6.158;2024-02-04T11:59:09;20.90;;;2.75;;
52868;SDS011;39100;53.480;6.158;2024-02-04T12:01:36;17.23;;;2.88;;
52868;SDS011;39100;53.480;6.158;2024-02-04T12:04:09;17.15;;;3.50;;
52868;SDS011;39100;53.480;6.158;2024-02-04T12:06:36;14.55;;;3.20;;
52868;SDS011;39100;53.480;6.158;2024-02-04T12:09:02;20.88;;;3.40;;
52868;SDS011;39100;53.480;6.158;2024-02-04T12:11:29;14.75;;;2.47;;
52868;SDS011;39100;53.480;6.158;2024-02-04T12:13:55;13.57;;;1.65;;
52868;SDS011;39100;53.480;6.158;2024-02-04T12:16:21;17.42;;;2.90;;
52868;SDS011;39100;53.480;6.158;2024-02-04T12:18:48;18.00;;;2.15;;
52868;SDS011;39100;53.480;6.158;2024-02-04T12:21:14;14.02;;;2.92;;
52868;SDS011;39100;53.480;6.158;2024-02-04T12:23:40;14.27;;;2.72;;
52868;SDS011;39100;53.480;6.158;2024-02-04T12:26:05;17.75;;;2.30;;
52868;SDS011;39100;53.480;6.158;2024-02-04T12:28:31;11.27;;;2.53;;
52868;SDS011;39100;53.480;6.158;2024-02-04T12:30:56;11.70;;;2.47;;
52868;SDS011;39100;53.480;6.158;2024-02-04T12:33:25;21.90;;;2.50;;
52868;SDS011;39100;53.480;6.158;2024-02-04T12:35:51;11.52;;;2.72;;
52868;SDS011;39100;53.480;6.158;2024-02-04T12:38:17;12.63;;;2.22;;
52868;SDS011;39100;53.480;6.158;2024-02-04T12:40:42;19.60;;;2.85;;
52868;SDS011;39100;53.480;6.158;2024-02-04T12:43:10;16.92;;;2.50;;
52868;SDS011;39100;53.480;6.158;2024-02-04T12:45:36;16.02;;;3.10;;
52868;SDS011;39100;53.480;6.158;2024-02-04T12:48:02;14.82;;;3.45;;
52868;SDS011;39100;53.480;6.158;2024-02-04T12:50:28;15.23;;;2.38;;
52868;SDS011;39100;53.480;6.158;2024-02-04T12:53:03;16.00;;;2.85;;
52868;SDS011;39100;53.480;6.158;2024-02-04T12:55:34;12.27;;;2.70;;
52868;SDS011;39100;53.480;6.158;2024-02-04T12:58:01;21.23;;;2.97;;
52868;SDS011;39100;53.480;6.158;2024-02-04T13:00:34;14.20;;;2.38;;
52868;SDS011;39100;53.480;6.158;2024-02-04T13:03:01;15.85;;;2.70;;
52868;SDS011;39100;53.480;6.158;2024-02-04T13:05:30;10.73;;;1.65;;
52868;SDS011;39100;53.480;6.158;2024-02-04T13:07:57;13.73;;;2.67;;
52868;SDS011;39100;53.480;6.158;2024-02-04T13:10:25;13.27;;;3.50;;
52868;SDS011;39100;53.480;6.158;2024-02-04T13:13:00;15.65;;;3.25;;
52868;SDS011;39100;53.480;6.158;2024-02-04T13:15:32;19.70;;;3.22;;
52868;SDS011;39100;53.480;6.158;2024-02-04T13:18:06;14.27;;;3.10;;
52868;SDS011;39100;53.480;6.158;2024-02-04T13:20:32;18.65;;;3.00;;
52868;SDS011;39100;53.480;6.158;2024-02-04T13:22:58;14.05;;;3.03;;
52868;SDS011;39100;53.480;6.158;2024-02-04T13:25:25;20.98;;;3.72;;
52868;SDS011;39100;53.480;6.158;2024-02-04T13:27:51;17.95;;;3.53;;
52868;SDS011;39100;53.480;6.158;2024-02-04T13:30:17;16.13;;;3.30;;
52868;SDS011;39100;53.480;6.158;2024-02-04T13:32:44;19.42;;;3.75;;
52868;SDS011;39100;53.480;6.158;2024-02-04T13:35:10;14.00;;;2.80;;
52868;SDS011;39100;53.480;6.158;2024-02-04T13:37:36;15.07;;;3.50;;
52868;SDS011;39100;53.480;6.158;2024-02-04T13:40:04;9.18;;;2.22;;
52868;SDS011;39100;53.480;6.158;2024-02-04T13:42:31;16.65;;;3.03;;
52868;SDS011;39100;53.480;6.158;2024-02-04T13:44:58;19.45;;;2.85;;
52868;SDS011;39100;53.480;6.158;2024-02-04T13:47:24;17.77;;;3.00;;
52868;SDS011;39100;53.480;6.158;2024-02-04T13:49:50;16.45;;;3.08;;
52868;SDS011;39100;53.480;6.158;2024-02-04T13:52:16;11.00;;;1.70;;
52868;SDS011;39100;53.480;6.158;2024-02-04T13:54:41;10.27;;;1.65;;
52868;SDS011;39100;53.480;6.158;2024-02-04T13:57:07;4.80;;;1.27;;
52868;SDS011;39100;53.480;6.158;2024-02-04T13:59:32;7.60;;;1.90;;
52868;SDS011;39100;53.480;6.158;2024-02-04T14:01:58;8.52;;;1.80;;
52868;SDS011;39100;53.480;6.158;2024-02-04T14:04:23;4.03;;;0.93;;
52868;SDS011;39100;53.480;6.158;2024-02-04T14:06:49;7.22;;;1.42;;
52868;SDS011;39100;53.480;6.158;2024-02-04T14:09:14;5.97;;;2.47;;
52868;SDS011;39100;53.480;6.158;2024-02-04T14:11:41;3.72;;;1.05;;
52868;SDS011;39100;53.480;6.158;2024-02-04T14:14:07;11.07;;;1.83;;
52868;SDS011;39100;53.480;6.158;2024-02-04T14:16:32;6.25;;;1.83;;
52868;SDS011;39100;53.480;6.158;2024-02-04T14:18:58;6.80;;;1.48;;
52868;SDS011;39100;53.480;6.158;2024-02-04T14:21:23;3.97;;;0.95;;
52868;SDS011;39100;53.480;6.158;2024-02-04T14:23:49;3.90;;;1.25;;
52868;SDS011;39100;53.480;6.158;2024-02-04T14:26:18;6.55;;;1.05;;
52868;SDS011;39100;53.480;6.158;2024-02-04T14:28:45;6.22;;;1.10;;
52868;SDS011;39100;53.480;6.158;2024-02-04T14:31:10;5.20;;;1.17;;
52868;SDS011;39100;53.480;6.158;2024-02-04T14:33:36;11.35;;;1.33;;
52868;SDS011;39100;53.480;6.158;2024-02-04T14:36:02;4.25;;;1.00;;
52868;SDS011;39100;53.480;6.158;2024-02-04T14:38:29;5.85;;;0.80;;
52868;SDS011;39100;53.480;6.158;2024-02-04T14:40:56;5.20;;;2.63;;
52868;SDS011;39100;53.480;6.158;2024-02-04T14:43:23;6.63;;;1.15;;
52868;SDS011;39100;53.480;6.158;2024-02-04T14:45:48;9.10;;;1.65;;